Latest Weather Observations for Morawa Airport

IDW60801

Issued at 8:32 am WST Tuesday 28 April 2015 (issued every 30 minutes, with the page automatically refreshed every 10 minutes)

About weather observations | Map of weather stations | Latest weather observations for WA | Other Formats
Station Details ID: 008296 Name: MORAWA AIRPORT Lat: -29.20 Lon: 116.02 Height: 271.4 m
Data from the previous 72 hours. | See also: Recent months at Morawa Airport
Date/Time
WST
Temp
°C
App
Temp
°C
Dew
Point
Rel
Hum
%
Delta-T
°C
Wind Press
QNH
hPa
Press
MSL
hPa
Rain
since 9 am
mm
Dir
 
Spd
km/h
Gust
km/h
Spd
kts
Gust
kts
28/08:30am 18.0 12.5 4.2 40 6.6 NE 22 30 12 16 1023.0 1021.9 0.0
28/08:00am 16.9 12.1 4.6 44 5.9 ENE 19 26 10 14 1023.0 1021.9 0.0
28/07:30am 15.7 12.0 4.4 47 5.3 ENE 13 19 7 10 1022.9 1021.8 0.0
28/07:00am 14.5 11.5 4.2 50 4.8 NE 9 11 5 6 1022.9 1021.8 0.0
28/06:30am 14.3 11.0 4.3 51 4.7 ENE 11 13 6 7 1022.7 1021.6 0.0
28/06:00am 14.7 12.1 4.4 50 4.8 NNE 7 9 4 5 1022.7 1021.6 0.0
28/05:30am 14.4 11.5 4.7 52 4.6 ENE 9 13 5 7 1022.5 1021.4 0.0
28/05:00am 14.8 11.9 4.5 50 4.8 ENE 9 13 5 7 1022.6 1021.5 0.0
28/04:30am 14.6 12.1 4.9 52 4.6 ENE 7 9 4 5 1022.3 1021.2 0.0
28/04:00am 14.4 11.6 5.0 53 4.4 ENE 9 13 5 7 1022.4 1021.3 0.0
28/03:30am 14.1 11.2 4.7 53 4.4 ENE 9 13 5 7 1022.0 1020.9 0.0
28/03:00am 14.3 11.8 4.6 52 4.5 NE 7 9 4 5 1022.8 1021.7 0.0
28/02:30am 15.0 12.1 4.7 50 4.9 NE 9 11 5 6 1022.9 1021.8 0.0
28/02:00am 15.5 12.6 4.8 49 5.1 ENE 9 13 5 7 1022.8 1021.7 0.0
28/01:30am 15.5 12.6 4.8 49 5.1 ENE 9 13 5 7 1022.5 1021.4 0.0
28/01:00am 16.1 13.2 4.8 47 5.4 NE 9 13 5 7 1022.8 1021.7 0.0
28/12:30am 16.1 12.8 4.8 47 5.4 NE 11 13 6 7 1022.9 1021.8 0.0
28/12:00am 16.2 13.3 4.9 47 5.4 NE 9 13 5 7 1023.1 1022.0 0.0
 
Date/Time
WST
Temp
°C
App
Temp
°C
Dew
Point
Rel
Hum
%
Delta-T
°C
Wind Press
QNH
hPa
Press
MSL
hPa
Rain
since 9 am
mm
Dir
 
Spd
km/h
Gust
km/h
Spd
kts
Gust
kts
27/11:30pm 15.8 12.9 4.8 48 5.2 NE 9 9 5 5 1023.4 1022.4 0.0
27/11:00pm 16.3 13.4 4.7 46 5.5 NE 9 9 5 5 1023.5 1022.5 0.0
27/10:30pm 17.0 14.7 4.7 44 5.9 NE 6 7 3 4 1023.7 1022.7 0.0
27/10:00pm 17.1 14.5 4.4 43 6.1 ENE 7 7 4 4 1023.4 1022.4 0.0
27/09:30pm 17.6 15.1 4.6 42 6.3 NE 7 9 4 5 1023.3 1022.2 0.0
27/09:00pm 18.6 15.7 4.4 39 6.8 NE 9 11 5 6 1023.1 1022.0 0.0
27/08:30pm 19.2 16.3 4.6 38 7.1 NE 9 11 5 6 1023.0 1021.9 0.0
27/08:00pm 20.4 17.1 4.4 35 7.8 ENE 11 13 6 7 1022.9 1021.8 0.0
27/07:30pm 20.4 17.1 4.4 35 7.8 ENE 11 15 6 8 1022.5 1021.4 0.0
27/07:00pm 20.8 17.5 4.4 34 8.0 ENE 11 13 6 7 1022.6 1021.5 0.0
27/06:30pm 21.4 18.9 4.5 33 8.3 ENE 7 9 4 5 1022.4 1021.3 0.0
27/06:00pm 23.0 20.0 4.0 29 9.4 ENE 9 11 5 6 1022.1 1021.0 0.0
27/05:30pm 25.0 21.6 4.2 26 10.5 ENE 11 17 6 9 1021.7 1020.6 0.0
27/05:00pm 26.1 22.3 4.0 24 11.1 ENE 13 17 7 9 1021.4 1020.3 0.0
27/04:30pm 26.6 22.5 4.4 24 11.3 ENE 15 22 8 12 1021.5 1020.4 0.0
27/04:00pm 26.8 22.6 4.0 23 11.5 ENE 15 22 8 12 1021.4 1020.3 0.0
27/03:30pm 27.1 23.2 3.6 22 11.9 ENE 13 20 7 11 1021.5 1020.4 0.0
27/03:00pm 27.4 23.3 4.5 23 11.7 ENE 15 26 8 14 1021.6 1020.5 0.0
27/02:30pm 27.0 22.9 4.1 23 11.7 ENE 15 22 8 12 1021.5 1020.4 0.0
27/02:00pm 26.7 22.6 4.5 24 11.3 ENE 15 26 8 14 1021.7 1020.6 0.0
27/01:30pm 26.3 21.8 4.1 24 11.3 ENE 17 24 9 13 1021.7 1020.6 0.0
27/01:00pm 26.0 21.2 4.5 25 10.9 ENE 19 30 10 16 1022.1 1021.0 0.0
27/12:30pm 25.5 20.5 4.6 26 10.6 NE 20 28 11 15 1022.5 1021.4 0.0
27/12:00pm 24.8 19.5 5.1 28 10.0 NE 22 33 12 18 1023.2 1022.1 0.0
27/11:30am 24.0 18.7 4.9 29 9.7 NE 22 35 12 19 1023.5 1022.5 0.0
27/11:00am 23.0 17.3 5.0 31 9.0 NE 24 33 13 18 1023.8 1022.8 0.0
27/10:30am 21.8 15.7 4.8 33 8.5 NE 26 32 14 17 1024.2 1023.2 0.0
27/10:00am 21.0 14.9 5.0 35 7.9 NE 26 33 14 18 1024.3 1023.3 0.0
27/09:30am 19.5 12.9 4.4 37 7.4 NE 28 37 15 20 1024.4 1023.4 0.0
27/09:00am 18.7 12.6 4.8 40 6.8 NE 26 35 14 19 1024.3 1023.3 0.0
27/08:30am 17.2 11.5 4.9 44 6.0 ENE 24 32 13 17 1024.4 1023.4 0.0
27/08:00am 16.1 11.1 4.5 46 5.5 ENE 20 28 11 15 1024.4 1023.4 0.0
27/07:30am 15.1 11.0 4.2 48 5.1 ENE 15 22 8 12 1024.2 1023.2 0.0
27/07:00am 14.4 10.2 3.8 49 4.9 ENE 15 20 8 11 1024.1 1023.1 0.0
27/06:30am 14.3 10.1 3.7 49 4.9 ENE 15 20 8 11 1023.6 1022.6 0.0
27/06:00am 14.6 9.9 3.4 47 5.1 ENE 17 24 9 13 1023.2 1022.1 0.0
27/05:30am 14.8 10.1 3.3 46 5.3 ENE 17 22 9 12 1023.2 1022.1 0.0
27/05:00am 15.0 10.7 3.2 45 5.4 ENE 15 20 8 11 1023.0 1021.9 0.0
27/04:30am 14.8 10.8 3.0 45 5.4 ENE 13 17 7 9 1022.9 1021.8 0.0
27/04:00am 14.6 11.0 3.1 46 5.2 ENE 11 15 6 8 1022.7 1021.6 0.0
27/03:30am 14.1 10.9 3.0 47 5.0 E 9 13 5 7 1022.9 1021.8 0.0
27/03:00am 14.2 11.3 2.8 46 5.1 ENE 7 9 4 5 1023.0 1021.9 0.0
27/02:30am 14.5 11.9 3.0 46 5.2 ENE 6 7 3 4 1022.8 1021.7 0.0
27/02:00am 15.3 12.1 2.8 43 5.7 ENE 9 13 5 7 1022.8 1021.7 0.0
27/01:30am 16.1 11.7 2.5 40 6.2 ENE 15 19 8 10 1022.8 1021.7 0.0
27/01:00am 16.6 12.2 2.6 39 6.4 ENE 15 20 8 11 1022.9 1021.8 0.0
27/12:30am 16.3 12.7 2.7 40 6.2 ENE 11 15 6 8 1023.2 1022.1 0.0
27/12:00am 15.9 12.6 2.7 41 6.0 ENE 9 13 5 7 1023.2 1022.1 0.0
 
Date/Time
WST
Temp
°C
App
Temp
°C
Dew
Point
Rel
Hum
%
Delta-T
°C
Wind Press
QNH
hPa
Press
MSL
hPa
Rain
since 9 am
mm
Dir
 
Spd
km/h
Gust
km/h
Spd
kts
Gust
kts
26/11:30pm 16.8 13.5 2.4 38 6.6 ENE 9 13 5 7 1023.4 1022.4 0.0
26/11:00pm 17.3 13.2 2.5 37 6.8 E 13 19 7 10 1023.2 1022.1 0.0
26/10:30pm 16.6 13.4 3.0 40 6.3 E 9 13 5 7 1023.3 1022.2 0.0
26/10:00pm 16.5 13.4 3.6 42 6.0 E 9 11 5 6 1023.3 1022.2 0.0
26/09:30pm 15.7 12.6 3.8 45 5.6 ENE 9 11 5 6 1023.3 1022.2 0.0
26/09:00pm 16.7 14.3 4.1 43 5.9 E 6 7 3 4 1023.2 1022.1 0.0
26/08:30pm 17.3 14.6 3.9 41 6.4 E 7 9 4 5 1022.9 1021.8 0.0
26/08:00pm 17.9 15.2 3.8 39 6.7 E 7 9 4 5 1022.7 1021.6 0.0
26/07:30pm 18.2 15.1 3.7 38 6.9 ENE 9 11 5 6 1022.5 1021.4 0.0
26/07:00pm 19.1 16.0 3.7 36 7.3 E 9 11 5 6 1022.2 1021.1 0.0
26/06:30pm 20.6 17.2 3.8 33 8.2 E 11 15 6 8 1022.0 1020.9 0.0
26/06:00pm 21.8 18.4 3.9 31 8.7 E 11 15 6 8 1021.8 1020.7 0.0
26/05:30pm 23.3 19.5 3.8 28 9.6 ENE 13 19 7 10 1021.6 1020.5 0.0
26/05:00pm 24.4 20.2 3.7 26 10.3 ENE 15 20 8 11 1021.3 1020.2 0.0
26/04:30pm 25.1 21.3 3.7 25 10.7 ENE 13 22 7 12 1021.0 1020.0 0.0
26/04:00pm 25.6 21.8 4.1 25 10.8 ENE 13 19 7 10 1020.9 1019.9 0.0
26/03:30pm 25.6 21.5 4.1 25 10.9 ENE 15 22 8 12 1020.9 1019.9 0.0
26/03:00pm 25.1 20.6 4.3 26 10.5 ENE 17 26 9 14 1020.8 1019.8 0.0
26/02:30pm 25.6 21.1 4.1 25 10.9 ENE 17 28 9 15 1020.9 1019.9 0.0
26/02:00pm 24.8 20.3 4.0 26 10.4 NE 17 28 9 15 1021.0 1020.0 0.0
26/01:30pm 24.6 20.4 3.8 26 10.4 ENE 15 24 8 13 1021.4 1020.3 0.0
26/01:00pm 24.7 19.7 4.5 27 10.2 ENE 20 30 11 16 1021.6 1020.5 0.0
26/12:30pm 23.7 19.3 4.6 29 9.6 ENE 17 28 9 15 1022.0 1020.9 0.0
26/12:00pm 23.2 18.4 4.7 30 9.3 NE 19 30 10 16 1022.6 1021.5 0.0
26/11:30am 22.2 16.8 4.3 31 8.9 NE 22 30 12 16 1022.9 1021.8 0.0
26/11:00am 22.0 16.1 4.1 31 8.8 ENE 24 33 13 18 1023.3 1022.2 0.0
26/10:30am 21.4 15.2 4.5 33 8.4 ENE 26 33 14 18 1023.5 1022.5 0.0
26/10:00am 20.1 13.9 4.2 35 7.7 ENE 26 37 14 20 1023.9 1022.9 0.0
26/09:30am 19.1 13.2 4.1 37 7.2 NE 24 33 13 18 1024.1 1023.1 0.0
26/09:00am 17.6 11.4 4.2 41 6.4 NE 26 37 14 20 1023.9 1022.9 0.0
26/08:30am 16.4 11.2 3.8 43 5.9 ENE 20 28 11 15 1023.9 1022.9 0.0
26/08:00am 15.3 10.3 3.8 46 5.3 ENE 19 24 10 13 1023.7 1022.7 0.0
26/07:30am 14.2 10.0 3.7 49 4.8 ENE 15 20 8 11 1023.3 1022.2 0.0
26/07:00am 13.1 9.2 3.2 51 4.5 ENE 13 19 7 10 1023.0 1021.9 0.0
26/06:30am 13.3 9.0 3.1 50 4.6 ENE 15 20 8 11 1022.9 1021.8 0.0
26/06:00am 13.8 9.8 3.0 48 4.9 ENE 13 20 7 11 1022.8 1021.7 0.0
26/05:30am 13.7 10.1 2.9 48 4.9 E 11 17 6 9 1022.6 1021.5 0.0
26/05:00am 13.5 9.9 3.0 49 4.7 E 11 17 6 9 1022.6 1021.5 0.0
26/04:30am 13.5 9.5 2.7 48 4.8 ENE 13 19 7 10 1022.5 1021.4 0.0
26/04:00am 13.2 9.2 2.7 49 4.7 ENE 13 17 7 9 1022.4 1021.3 0.0
26/03:30am 13.0 9.4 2.8 50 4.6 E 11 15 6 8 1022.3 1021.2 0.0
26/03:00am 12.5 9.2 2.4 50 4.4 E 9 11 5 6 1022.5 1021.4 0.0
26/02:30am 13.6 10.3 2.2 46 5.1 ENE 9 13 5 7 1022.6 1021.5 0.0
26/02:00am 14.4 9.9 2.3 44 5.4 ENE 15 22 8 12 1022.6 1021.5 0.0
26/01:30am 14.6 10.1 2.2 43 5.6 ENE 15 20 8 11 1022.4 1021.3 0.0
26/01:00am 15.3 10.4 2.1 41 5.9 ENE 17 24 9 13 1022.3 1021.2 0.0
26/12:30am 15.5 10.2 2.0 40 6.1 ENE 19 24 10 13 1022.3 1021.2 0.0
26/12:00am 15.6 11.4 1.7 39 6.2 ENE 13 19 7 10 1022.2 1021.1 0.0
 
Date/Time
WST
Temp
°C
App
Temp
°C
Dew
Point
Rel
Hum
%
Delta-T
°C
Wind Press
QNH
hPa
Press
MSL
hPa
Rain
since 9 am
mm
Dir
 
Spd
km/h
Gust
km/h
Spd
kts
Gust
kts
25/11:30pm 14.6 11.3 2.2 43 5.6 E 9 15 5 8 1022.5 1021.4 0.0
25/11:00pm 14.8 11.0 1.7 41 5.8 E 11 13 6 7 1022.7 1021.6 0.0
25/10:30pm 15.6 11.7 1.4 38 6.3 ENE 11 15 6 8 1022.8 1021.7 0.0
25/10:00pm 16.5 12.3 1.4 36 6.7 E 13 19 7 10 1022.8 1021.7 0.0
25/09:30pm 14.5 11.2 0.4 38 6.1 ENE 7 9 4 5 1022.7 1021.6 0.0
25/09:00pm 14.6 11.3 0.1 37 6.2 E 7 7 4 4 1022.5 1021.4 0.0
25/08:30pm 15.5 12.2 0.1 35 6.6 E 7 9 4 5 1022.3 1021.2 0.0
25/08:00pm 16.3 12.6 0.0 33 7.0 E 9 11 5 6 1022.1 1021.0 0.0
25/07:30pm 16.6 13.2 -0.6 31 7.4 E 7 9 4 5 1021.9 1020.8 0.0
25/07:00pm 17.9 13.7 -0.8 28 8.1 ENE 11 13 6 7 1021.5 1020.4 0.0
25/06:30pm 18.8 14.6 -1.1 26 8.6 ENE 11 13 6 7 1021.3 1020.2 0.0
25/06:00pm 20.4 15.4 -1.4 23 9.5 ENE 15 19 8 10 1020.8 1019.8 0.0
25/05:30pm 21.9 16.6 -0.8 22 10.2 ENE 17 22 9 12 1020.7 1019.7 0.0
25/05:00pm 22.9 17.7 0.1 22 10.4 ENE 17 22 9 12 1020.5 1019.5 0.0
25/04:30pm 23.3 17.9 1.0 23 10.5 ENE 19 26 10 14 1020.4 1019.4 0.0
25/04:00pm 23.5 18.5 1.2 23 10.5 E 17 28 9 15 1020.5 1019.5 0.0
25/03:30pm 23.6 18.7 1.9 24 10.4 ENE 17 28 9 15 1020.6 1019.6 0.0
25/03:00pm 24.0 19.2 2.8 25 10.3 E 17 22 9 12 1020.5 1019.5 0.0
25/02:30pm 23.7 19.1 3.6 27 9.9 ENE 17 26 9 14 1020.4 1019.4 0.0
25/02:00pm 23.2 18.2 3.7 28 9.6 E 19 26 10 14 1020.6 1019.6 0.0
25/01:30pm 23.1 18.0 4.1 29 9.4 ENE 20 30 11 16 1020.7 1019.7 0.0
25/01:00pm 22.3 16.8 3.9 30 9.0 ENE 22 37 12 20 1021.1 1020.1 0.0
25/12:30pm 21.8 15.9 3.9 31 8.8 ENE 24 32 13 17 1021.7 1020.6 0.0
25/12:00pm 21.4 15.8 3.6 31 8.6 ENE 22 32 12 17 1022.2 1021.1 0.0
25/11:30am 20.6 13.8 3.3 32 8.3 ENE 28 41 15 22 1022.7 1021.6 0.0
25/11:00am 19.7 13.3 3.0 33 7.9 ENE 26 37 14 20 1023.2 1022.1 0.0
25/10:30am 18.8 11.6 3.0 35 7.4 ENE 30 39 16 21 1023.6 1022.6 0.0
25/10:00am 18.0 10.4 2.7 36 7.1 ENE 32 43 17 23 1023.8 1022.8 0.0
25/09:30am 17.0 9.2 3.0 39 6.5 ENE 33 46 18 25 1023.9 1022.9 0.0
25/09:00am 16.0 9.2 3.1 42 5.9 ENE 28 43 15 23 1024.1 1023.1 0.0

Other Formats:

Comma delimited format used in spreadsheet applications
http://www.bom.gov.au/fwo/IDW60801/IDW60801.94417.axf

JavaScript Object Notation format (JSON) in row-major order
http://www.bom.gov.au/fwo/IDW60801/IDW60801.94417.json